Time;durP1;ratioP1;P1;durP2;ratioP2;P2;SDS_P1;SDS_P2;PMS_P1;PMS_P2;Temp;Humidity;BMP_temperature;BMP_pressure;BME280_temperature;BME280_humidity;BME280_pressure;Samples;Min_cycle;Max_cycle;Signal;HPM_P1;HPM_P2
2022/07/04 07:56:38;;;;;;;0.60;0.22;;;28.40;91.70;;;;;;4933734;23;20305;-71
2022/07/04 07:59:07;;;;;;;0.45;0.25;;;28.40;90.90;;;;;;4911013;29;20214;-71
2022/07/04 08:01:33;;;;;;;0.75;0.30;;;29.00;90.90;;;;;;4914382;29;20249;-67
2022/07/04 08:06:45;;;;;;;1.98;0.50;;;29.20;88.40;;;;;;4900996;29;20244;-69
2022/07/04 08:09:14;;;;;;;1.05;0.70;;;28.50;89.30;;;;;;4904472;29;20249;-70
2022/07/04 08:11:40;;;;;;;0.50;0.30;;;29.00;90.30;;;;;;4900625;29;20607;-68
2022/07/04 08:14:09;;;;;;;2.58;0.50;;;29.00;90.30;;;;;;4913891;29;20229;-70
2022/07/04 08:16:36;;;;;;;1.88;0.40;;;29.00;87.60;;;;;;4913670;29;20209;-70
2022/07/04 08:19:04;;;;;;;1.35;0.50;;;28.80;88.90;;;;;;4918438;29;20209;-70
2022/07/04 08:21:31;;;;;;;2.05;0.30;;;28.90;87.80;;;;;;4918244;29;20683;-68
2022/07/04 08:23:58;;;;;;;0.40;0.30;;;29.00;88.10;;;;;;4918171;29;20746;-72
2022/07/04 08:26:25;;;;;;;0.73;0.30;;;29.80;88.70;;;;;;4918267;29;20601;-71
2022/07/04 08:28:52;;;;;;;3.30;0.30;;;29.30;86.30;;;;;;4918298;29;20292;-71
2022/07/04 08:31:21;;;;;;;1.23;0.30;;;29.40;87.70;;;;;;4918444;29;20214;-72
2022/07/04 08:33:48;;;;;;;1.23;0.50;;;29.70;87.00;;;;;;4935311;29;20264;-70
2022/07/04 08:36:14;;;;;;;0.88;0.30;;;29.40;86.00;;;;;;4937571;29;20255;-70
2022/07/04 08:38:41;;;;;;;0.70;0.30;;;28.70;85.90;;;;;;4937059;29;20213;-70
2022/07/04 08:41:09;;;;;;;0.70;0.30;;;28.40;87.00;;;;;;4937016;29;20295;-71
2022/07/04 08:43:36;;;;;;;0.63;0.30;;;28.90;88.40;;;;;;4919177;29;20225;-71
2022/07/04 08:46:05;;;;;;;0.50;0.30;;;29.10;88.50;;;;;;4917821;29;20237;-71
2022/07/04 08:48:34;;;;;;;1.60;0.30;;;28.90;88.00;;;;;;4918262;29;20216;-71
2022/07/04 08:51:10;;;;;;;1.85;0.30;;;28.80;86.60;;;;;;4917524;29;20587;-70
2022/07/04 08:53:39;;;;;;;1.88;0.40;;;28.80;88.00;;;;;;4917143;29;20588;-70
2022/07/04 08:58:52;;;;;;;1.38;0.30;;;28.50;84.50;;;;;;4897857;29;20285;-69
2022/07/04 09:01:19;;;;;;;0.77;0.28;;;27.90;87.70;;;;;;4926950;29;20208;-70
2022/07/04 09:03:48;;;;;;;0.85;0.40;;;27.50;86.90;;;;;;4917617;29;20229;-70
2022/07/04 09:06:15;;;;;;;0.93;0.30;;;27.10;89.90;;;;;;4917545;29;20237;-71
2022/07/04 09:08:42;;;;;;;0.57;0.40;;;27.40;89.60;;;;;;4916936;29;20248;-71
2022/07/04 09:11:09;;;;;;;0.85;0.30;;;27.80;90.00;;;;;;4916241;29;20288;-71
2022/07/04 09:13:36;;;;;;;0.70;0.30;;;28.00;88.00;;;;;;4914671;29;20641;-70
2022/07/04 09:16:03;;;;;;;0.80;0.30;;;28.20;89.30;;;;;;4916464;29;20220;-70
2022/07/04 09:18:31;;;;;;;0.40;0.30;;;28.30;87.00;;;;;;4917596;29;20220;-71
2022/07/04 09:21:01;;;;;;;1.05;0.30;;;29.10;87.60;;;;;;4917145;29;20210;-71
2022/07/04 09:23:29;;;;;;;0.93;0.30;;;29.50;86.00;;;;;;4933210;29;20235;-71
2022/07/04 09:26:11;;;;;;;0.93;0.50;;;28.80;83.40;;;;;;4934160;29;20320;-70
2022/07/04 09:28:39;;;;;;;1.25;0.45;;;28.50;86.40;;;;;;4917016;29;20669;-72
2022/07/04 09:31:24;;;;;;;2.30;0.40;;;28.10;85.20;;;;;;4917643;29;20219;-72
2022/07/04 09:33:53;;;;;;;1.85;0.50;;;28.10;88.10;;;;;;4917298;29;20233;-72
2022/07/04 09:36:24;;;;;;;1.85;0.30;;;28.10;87.00;;;;;;4917006;29;20213;-72
2022/07/04 09:39:11;;;;;;;0.65;0.38;;;28.30;86.90;;;;;;4916849;29;20210;-71
2022/07/04 09:41:54;;;;;;;0.75;0.30;;;28.20;86.60;;;;;;4917532;29;20210;-74
2022/07/04 09:44:22;;;;;;;0.85;0.30;;;28.80;85.70;;;;;;4917017;29;20236;-72
2022/07/04 09:46:49;;;;;;;0.55;0.30;;;28.80;84.50;;;;;;4917224;29;20696;-72
2022/07/04 09:49:16;;;;;;;2.03;0.38;;;28.70;82.20;;;;;;4917621;29;20209;-72
2022/07/04 09:51:45;;;;;;;0.35;0.30;;;28.50;85.00;;;;;;4917329;29;20214;-71
2022/07/04 09:54:26;;;;;;;1.85;0.50;;;27.90;86.30;;;;;;4917197;29;20285;-72
2022/07/04 09:56:54;;;;;;;4.05;0.68;;;28.00;84.80;;;;;;4916891;29;20221;-72
2022/07/04 09:59:22;;;;;;;2.63;0.80;;;28.80;86.40;;;;;;4916987;29;20205;-72
2022/07/04 10:01:49;;;;;;;1.92;0.93;;;28.50;86.60;;;;;;4917348;29;20216;-71
2022/07/04 10:04:16;;;;;;;2.13;1.15;;;28.40;89.10;;;;;;4916910;29;20320;-72
2022/07/04 10:06:45;;;;;;;4.95;1.50;;;28.40;88.20;;;;;;4916921;29;20237;-72
2022/07/04 10:09:13;;;;;;;3.20;1.50;;;28.40;89.80;;;;;;4916731;29;20217;-71
2022/07/04 10:11:41;;;;;;;4.43;2.00;;;28.00;87.40;;;;;;4917029;29;20672;-72
2022/07/04 10:14:10;;;;;;;3.92;2.20;;;27.90;87.50;;;;;;4916688;29;20240;-72
2022/07/04 10:16:37;;;;;;;3.50;1.67;;;27.70;87.80;;;;;;4916979;29;20690;-72
2022/07/04 10:19:04;;;;;;;5.22;1.83;;;27.60;85.10;;;;;;4916780;29;20296;-71
2022/07/04 10:21:31;;;;;;;4.88;2.05;;;27.30;82.50;;;;;;4916908;29;20210;-71
2022/07/04 10:24:00;;;;;;;2.70;1.70;;;27.00;87.20;;;;;;4916771;29;20235;-71
2022/07/04 10:26:29;;;;;;;4.53;2.30;;;26.60;88.10;;;;;;4917002;29;20265;-73
2022/07/04 10:28:56;;;;;;;5.43;2.05;;;26.30;86.10;;;;;;4916692;29;20680;-70
2022/07/04 10:31:25;;;;;;;7.57;2.53;;;26.30;87.30;;;;;;4916906;29;20216;-70
2022/07/04 10:33:54;;;;;;;6.25;2.08;;;26.30;87.90;;;;;;4916697;29;20253;-71
2022/07/04 10:36:23;;;;;;;4.03;1.20;;;26.20;90.20;;;;;;4916569;29;20273;-71
2022/07/04 10:38:51;;;;;;;2.85;1.00;;;26.30;90.20;;;;;;4917018;29;20233;-71
2022/07/04 10:41:21;;;;;;;4.28;1.40;;;26.20;90.10;;;;;;4916997;29;20216;-72
2022/07/04 10:43:56;;;;;;;3.65;1.45;;;25.90;89.10;;;;;;4916614;29;20233;-71
2022/07/04 10:46:31;;;;;;;3.78;1.58;;;25.80;89.70;;;;;;4916748;29;20232;-70
2022/07/04 10:49:00;;;;;;;2.65;1.40;;;25.90;88.30;;;;;;4916557;29;20299;-71
2022/07/04 10:51:37;;;;;;;2.55;1.30;;;26.00;90.10;;;;;;4916719;29;20210;-70
2022/07/04 10:54:06;;;;;;;1.10;0.60;;;26.10;86.70;;;;;;4916695;29;20232;-70
2022/07/04 10:56:41;;;;;;;4.15;0.63;;;25.70;87.00;;;;;;4916672;29;20237;-71
2022/07/04 10:59:11;;;;;;;1.83;0.68;;;25.50;86.40;;;;;;4916472;29;20668;-71
2022/07/04 11:01:38;;;;;;;2.47;0.50;;;25.40;87.90;;;;;;4916639;29;20220;-70
2022/07/04 11:04:05;;;;;;;1.80;0.50;;;25.20;88.00;;;;;;4916760;29;20233;-71
2022/07/04 11:06:54;;;;;;;0.75;0.40;;;25.20;90.80;;;;;;4916699;29;20633;-70
2022/07/04 11:09:22;;;;;;;0.68;0.38;;;25.40;91.10;;;;;;4916740;29;20297;-70
2022/07/04 11:11:52;;;;;;;0.95;0.38;;;25.40;89.60;;;;;;4916430;29;20209;-70
2022/07/04 11:14:33;;;;;;;1.85;0.50;;;25.40;91.50;;;;;;4916297;29;20723;-70
2022/07/04 11:17:01;;;;;;;2.40;0.40;;;25.60;91.00;;;;;;4916581;29;20216;-69
2022/07/04 11:19:28;;;;;;;5.13;0.82;;;25.70;90.50;;;;;;4916505;29;20573;-71
2022/07/04 11:21:55;;;;;;;1.10;0.50;;;25.90;90.40;;;;;;4916368;29;20288;-70
2022/07/04 11:24:22;;;;;;;1.00;0.47;;;25.80;90.10;;;;;;4916419;29;20630;-70
2022/07/04 11:26:51;;;;;;;1.80;0.60;;;25.80;90.60;;;;;;4918917;29;20301;-70
2022/07/04 11:29:18;;;;;;;1.30;0.50;;;25.80;90.40;;;;;;4919717;29;20657;-70
2022/07/04 11:31:46;;;;;;;1.05;0.50;;;25.70;91.00;;;;;;4919797;29;20220;-71
2022/07/04 11:34:14;;;;;;;1.30;0.40;;;25.60;90.40;;;;;;4919808;29;20229;-70
2022/07/04 11:36:42;;;;;;;1.23;0.88;;;25.70;91.40;;;;;;4919628;29;20213;-71
2022/07/04 11:39:11;;;;;;;1.35;0.50;;;25.80;91.20;;;;;;4919753;29;20209;-70
2022/07/04 11:47:15;;;;;;;0.68;0.35;;;25.80;87.40;;;;;;4919265;29;20240;-70
2022/07/04 11:49:49;;;;;;;0.93;0.55;;;26.00;90.40;;;;;;4919809;29;20265;-71
2022/07/04 11:52:17;;;;;;;0.88;0.30;;;26.10;91.70;;;;;;4919323;29;20690;-71
2022/07/04 11:54:46;;;;;;;1.30;0.40;;;26.30;90.90;;;;;;4919206;29;20598;-70
2022/07/04 11:57:15;;;;;;;1.73;0.55;;;26.40;91.00;;;;;;4919232;29;20225;-71
2022/07/04 11:59:44;;;;;;;2.53;0.40;;;26.60;90.90;;;;;;4918959;29;20313;-71
2022/07/04 12:02:13;;;;;;;0.50;0.30;;;26.60;90.40;;;;;;4919436;29;20224;-70
2022/07/04 12:04:41;;;;;;;1.05;0.45;;;26.60;88.20;;;;;;4919098;29;20699;-71
2022/07/04 12:07:13;;;;;;;2.15;0.47;;;26.30;90.10;;;;;;4919121;29;20234;-70
2022/07/04 12:09:40;;;;;;;1.13;0.40;;;26.20;89.80;;;;;;4919018;29;20215;-70
2022/07/04 12:12:09;;;;;;;1.85;0.55;;;25.90;89.40;;;;;;4918728;29;20220;-70
2022/07/04 12:14:36;;;;;;;1.25;0.60;;;26.00;90.40;;;;;;4918871;29;20316;-70
2022/07/04 12:17:18;;;;;;;0.47;0.43;;;26.20;87.00;;;;;;4919134;29;20220;-70
2022/07/04 12:19:58;;;;;;;1.60;0.55;;;26.10;88.50;;;;;;4918921;29;20229;-70
2022/07/04 12:22:31;;;;;;;0.85;0.30;;;25.80;90.20;;;;;;4918847;29;20216;-70
2022/07/04 12:24:58;;;;;;;2.05;0.40;;;25.60;90.60;;;;;;4918645;29;20217;-70
2022/07/04 12:27:25;;;;;;;1.65;0.40;;;25.60;91.00;;;;;;4918860;29;20248;-70
2022/07/04 12:29:54;;;;;;;3.00;0.45;;;25.70;91.20;;;;;;4918700;29;20209;-70
2022/07/04 12:32:22;;;;;;;3.05;0.52;;;25.70;87.80;;;;;;4918651;29;20214;-69
2022/07/04 12:34:50;;;;;;;2.40;0.50;;;25.70;87.00;;;;;;4918315;29;20236;-70
2022/07/04 12:37:18;;;;;;;0.75;0.30;;;25.90;89.00;;;;;;4917966;29;20214;-70
2022/07/04 12:39:46;;;;;;;1.55;0.57;;;25.90;91.20;;;;;;4918724;29;20213;-70
2022/07/04 12:42:15;;;;;;;0.82;0.50;;;26.10;90.50;;;;;;4918692;29;20217;-70
2022/07/04 12:44:44;;;;;;;1.63;0.50;;;26.30;90.30;;;;;;4918620;29;20234;-69
2022/07/04 12:47:12;;;;;;;1.73;0.65;;;25.90;88.90;;;;;;4918393;29;20240;-70
2022/07/04 12:49:45;;;;;;;1.08;0.40;;;25.80;90.50;;;;;;4918225;29;20214;-71
2022/07/04 12:52:14;;;;;;;0.75;0.50;;;25.60;91.10;;;;;;4918794;29;20251;-70
2022/07/04 12:54:44;;;;;;;1.60;0.55;;;25.70;91.20;;;;;;4918445;29;20243;-71
2022/07/04 12:57:14;;;;;;;1.88;0.70;;;25.70;90.80;;;;;;4917865;29;20221;-71
2022/07/04 12:59:42;;;;;;;0.60;0.40;;;25.70;90.60;;;;;;4917949;29;20215;-71
2022/07/04 13:02:11;;;;;;;0.98;0.45;;;25.70;91.40;;;;;;4918134;29;20221;-72
2022/07/04 13:04:39;;;;;;;1.02;0.45;;;25.80;91.40;;;;;;4918156;29;20727;-71
2022/07/04 13:07:15;;;;;;;1.73;0.60;;;26.00;92.20;;;;;;4918078;29;20244;-70
2022/07/04 13:09:43;;;;;;;2.03;0.80;;;26.20;91.00;;;;;;4918171;29;20291;-71
2022/07/04 13:12:25;;;;;;;1.20;1.10;;;26.10;89.30;;;;;;4917721;29;20213;-71
2022/07/04 13:14:53;;;;;;;1.38;0.30;;;25.90;90.70;;;;;;4917938;29;20216;-71
2022/07/04 13:17:21;;;;;;;3.30;0.50;;;25.90;90.80;;;;;;4917617;29;20213;-71
2022/07/04 13:19:48;;;;;;;1.05;0.50;;;26.10;90.70;;;;;;4917509;29;20642;-71
2022/07/04 13:22:16;;;;;;;1.75;0.50;;;26.10;90.60;;;;;;4917607;29;20269;-70
2022/07/04 13:24:43;;;;;;;2.67;0.50;;;26.20;90.60;;;;;;4918003;29;20646;-71
2022/07/04 13:27:09;;;;;;;0.40;0.30;;;26.10;90.50;;;;;;4917501;29;20209;-71
2022/07/04 13:29:36;;;;;;;0.77;0.40;;;26.10;87.10;;;;;;4917572;29;20209;-71
2022/07/04 13:32:04;;;;;;;1.02;0.40;;;26.00;88.20;;;;;;4917552;29;20216;-70
2022/07/04 13:34:31;;;;;;;1.38;0.40;;;26.20;86.30;;;;;;4917279;29;20316;-71
2022/07/04 13:36:58;;;;;;;1.48;0.52;;;26.30;86.30;;;;;;4917631;29;20225;-71
2022/07/04 13:39:26;;;;;;;2.13;0.35;;;26.50;88.20;;;;;;4917427;29;20212;-72
2022/07/04 13:41:53;;;;;;;0.75;0.30;;;26.50;87.80;;;;;;4917404;29;20220;-70
2022/07/04 13:44:20;;;;;;;1.30;0.60;;;26.60;87.40;;;;;;4917659;29;20230;-70
2022/07/04 13:46:47;;;;;;;0.55;0.30;;;26.60;86.10;;;;;;4917383;29;20569;-70
2022/07/04 13:49:14;;;;;;;0.80;0.40;;;26.70;88.30;;;;;;4916390;29;20243;-72
2022/07/04 13:51:41;;;;;;;0.98;0.40;;;26.70;87.20;;;;;;4917516;29;20577;-71
2022/07/04 13:54:08;;;;;;;0.35;0.30;;;26.80;86.30;;;;;;4918070;29;20260;-72
2022/07/04 13:56:36;;;;;;;1.92;0.50;;;26.80;88.90;;;;;;4916804;29;20577;-71
2022/07/04 13:59:03;;;;;;;0.50;0.40;;;26.40;85.80;;;;;;4917105;29;20305;-71
2022/07/04 14:01:30;;;;;;;1.02;0.50;;;26.30;88.50;;;;;;4917289;29;20220;-71
2022/07/04 14:03:57;;;;;;;0.30;0.30;;;26.30;90.30;;;;;;4916736;29;20231;-70
2022/07/04 14:06:24;;;;;;;1.67;0.40;;;26.30;88.10;;;;;;4917075;29;20209;-71
2022/07/04 14:08:51;;;;;;;1.73;0.50;;;26.30;89.10;;;;;;4917178;29;20249;-71
2022/07/04 14:11:18;;;;;;;1.20;0.40;;;26.40;90.10;;;;;;4917179;29;20300;-71
2022/07/04 14:13:46;;;;;;;1.20;0.43;;;26.50;85.80;;;;;;4917119;29;20597;-71
2022/07/04 14:16:13;;;;;;;0.50;0.30;;;26.50;86.30;;;;;;4917084;29;20213;-71
2022/07/04 14:18:40;;;;;;;1.63;0.50;;;26.40;85.50;;;;;;4916818;29;20584;-71
2022/07/04 14:21:07;;;;;;;0.82;0.43;;;26.50;86.80;;;;;;4917141;29;20304;-71
2022/07/04 14:23:45;;;;;;;0.85;0.40;;;26.50;86.20;;;;;;4916477;29;20229;-70
2022/07/04 14:26:14;;;;;;;2.50;0.47;;;26.40;88.60;;;;;;4916966;29;20205;-70
2022/07/04 14:28:44;;;;;;;0.55;0.40;;;26.30;88.30;;;;;;4916716;29;20347;-70
2022/07/04 14:31:12;;;;;;;0.40;0.30;;;26.00;88.40;;;;;;4916906;29;20700;-69
2022/07/04 14:33:39;;;;;;;3.72;0.65;;;25.90;88.90;;;;;;4916616;29;20728;-70
2022/07/04 14:36:08;;;;;;;3.65;0.65;;;25.80;89.10;;;;;;4916669;29;20304;-70
2022/07/04 14:38:35;;;;;;;1.10;0.43;;;25.70;87.90;;;;;;4916883;29;20213;-71
2022/07/04 14:41:10;;;;;;;0.65;0.40;;;25.60;88.10;;;;;;4916717;29;20764;-70
2022/07/04 14:43:38;;;;;;;1.35;0.52;;;25.60;90.20;;;;;;4916601;29;20588;-71
2022/07/04 14:46:05;;;;;;;1.05;0.47;;;25.80;89.10;;;;;;4916655;29;20210;-70
2022/07/04 14:48:34;;;;;;;0.90;0.50;;;26.00;88.60;;;;;;4916702;29;20256;-71
2022/07/04 14:51:00;;;;;;;0.88;0.52;;;26.00;90.50;;;;;;4916323;29;20214;-71
2022/07/04 14:53:28;;;;;;;0.65;0.50;;;26.10;89.90;;;;;;4916525;29;20235;-71
2022/07/04 14:55:54;;;;;;;1.52;0.60;;;26.20;89.50;;;;;;4916401;29;20217;-71
2022/07/04 14:58:21;;;;;;;1.40;0.60;;;26.00;89.50;;;;;;4916604;29;20210;-70
2022/07/04 15:00:48;;;;;;;2.20;0.55;;;26.00;90.00;;;;;;4919455;29;20596;-71
2022/07/04 15:03:16;;;;;;;1.50;0.63;;;25.90;89.90;;;;;;4919999;29;20235;-71
2022/07/04 15:05:44;;;;;;;0.80;0.45;;;25.80;89.50;;;;;;4920114;29;20665;-71
2022/07/04 15:08:11;;;;;;;0.60;0.40;;;25.60;90.30;;;;;;4920093;29;20243;-70
2022/07/04 15:10:38;;;;;;;0.85;0.40;;;25.70;91.50;;;;;;4920443;29;20206;-71
2022/07/04 15:13:05;;;;;;;0.50;0.40;;;26.00;90.50;;;;;;4920081;29;20225;-70
2022/07/04 15:15:32;;;;;;;2.40;0.40;;;26.30;90.40;;;;;;4920042;29;20209;-71
2022/07/04 15:17:59;;;;;;;2.53;0.30;;;26.50;90.00;;;;;;4920238;29;20214;-70
2022/07/04 15:25:55;;;;;;;0.50;0.38;;;26.30;89.70;;;;;;4899859;29;20205;-70
2022/07/04 15:28:22;;;;;;;0.47;0.32;;;26.30;89.60;;;;;;4919778;29;20245;-70
2022/07/04 15:30:49;;;;;;;0.55;0.32;;;26.30;89.70;;;;;;4920060;29;20205;-69
2022/07/04 15:33:16;;;;;;;0.73;0.30;;;26.10;90.00;;;;;;4919548;29;20229;-69
2022/07/04 15:35:43;;;;;;;0.38;0.30;;;26.10;89.80;;;;;;4919602;29;20744;-69
2022/07/04 15:38:12;;;;;;;1.20;0.40;;;26.00;90.00;;;;;;4919919;29;20641;-69
2022/07/04 15:40:41;;;;;;;0.75;0.30;;;26.00;90.30;;;;;;4919665;29;20212;-70
2022/07/04 15:43:08;;;;;;;1.27;0.70;;;26.10;90.00;;;;;;4919218;29;20270;-70
2022/07/04 15:45:35;;;;;;;0.65;0.50;;;26.10;89.50;;;;;;4919768;29;20219;-70
2022/07/04 15:48:02;;;;;;;0.68;0.40;;;26.10;90.30;;;;;;4919209;29;20233;-70
2022/07/04 15:50:29;;;;;;;1.25;0.52;;;26.00;87.90;;;;;;4919611;29;20679;-69
2022/07/04 15:52:56;;;;;;;0.93;0.40;;;25.90;88.90;;;;;;4919454;29;20596;-70
2022/07/04 15:55:24;;;;;;;0.80;0.40;;;25.80;89.20;;;;;;4919168;29;20308;-70
2022/07/04 15:57:52;;;;;;;0.95;0.45;;;25.70;88.80;;;;;;4919251;29;20219;-70
2022/07/04 16:00:19;;;;;;;1.08;0.40;;;25.70;87.70;;;;;;4919195;29;20234;-70
2022/07/04 16:02:46;;;;;;;0.98;0.43;;;25.70;89.60;;;;;;4919159;29;20743;-70
2022/07/04 16:05:13;;;;;;;0.95;0.47;;;25.80;89.70;;;;;;4919194;29;20290;-70
2022/07/04 16:07:40;;;;;;;1.83;0.50;;;25.80;90.50;;;;;;4918847;29;20308;-70
2022/07/04 16:10:08;;;;;;;2.10;0.50;;;25.80;88.80;;;;;;4919037;29;20237;-69
2022/07/04 16:12:36;;;;;;;1.13;0.45;;;25.60;88.80;;;;;;4917897;29;20665;-70
2022/07/04 16:15:03;;;;;;;1.48;0.50;;;25.60;90.30;;;;;;4919248;29;20224;-70
2022/07/04 16:17:30;;;;;;;1.33;0.50;;;25.70;89.80;;;;;;4918968;29;20220;-71
2022/07/04 16:19:57;;;;;;;0.95;0.50;;;25.60;89.50;;;;;;4918763;29;20210;-70
2022/07/04 16:22:24;;;;;;;1.77;0.40;;;25.50;90.30;;;;;;4918772;29;20677;-71
2022/07/04 16:24:51;;;;;;;1.02;0.52;;;25.50;90.90;;;;;;4918894;29;20226;-70
2022/07/04 16:27:19;;;;;;;1.10;0.50;;;25.40;91.10;;;;;;4918773;29;20221;-71
2022/07/04 16:29:47;;;;;;;1.05;0.63;;;25.40;91.00;;;;;;4913857;29;20252;-70
2022/07/04 16:32:14;;;;;;;1.65;0.50;;;25.40;90.90;;;;;;4918284;29;20316;-71
2022/07/04 16:34:40;;;;;;;0.75;0.57;;;25.40;90.30;;;;;;4918143;29;20235;-70
2022/07/04 16:37:07;;;;;;;1.20;0.60;;;25.30;90.90;;;;;;4918207;29;20224;-71
2022/07/04 16:39:34;;;;;;;1.00;0.50;;;25.20;91.40;;;;;;4925205;29;20209;-70
2022/07/04 16:42:02;;;;;;;1.77;0.50;;;25.00;91.60;;;;;;4916176;29;20641;-70
2022/07/04 16:44:29;;;;;;;1.25;0.60;;;24.90;91.80;;;;;;4899376;29;20597;-70
2022/07/04 16:46:57;;;;;;;2.17;0.60;;;25.00;91.90;;;;;;4899416;29;20666;-70
2022/07/04 16:49:24;;;;;;;0.63;0.60;;;24.90;92.50;;;;;;4916802;29;20649;-71
2022/07/04 16:51:51;;;;;;;1.85;0.50;;;24.90;91.80;;;;;;4918503;29;20220;-70
2022/07/04 16:54:18;;;;;;;1.00;0.60;;;24.80;92.40;;;;;;4918219;29;20229;-70
2022/07/04 16:56:45;;;;;;;0.70;0.50;;;24.80;92.20;;;;;;4917847;29;20218;-71
2022/07/04 16:59:11;;;;;;;0.63;0.50;;;24.90;92.40;;;;;;4920122;29;20205;-70
2022/07/04 17:01:38;;;;;;;2.10;0.50;;;24.90;92.60;;;;;;4936762;29;20209;-71
2022/07/04 17:04:07;;;;;;;0.93;0.50;;;24.80;92.70;;;;;;4936639;29;20708;-71
2022/07/04 17:06:33;;;;;;;1.42;0.68;;;24.70;92.50;;;;;;4937201;29;20209;-70
2022/07/04 17:09:00;;;;;;;3.42;0.80;;;24.70;93.00;;;;;;4934160;29;20247;-71
2022/07/04 17:11:27;;;;;;;1.83;0.60;;;24.90;93.20;;;;;;4901470;29;20293;-70
2022/07/04 17:13:55;;;;;;;1.02;0.63;;;24.90;91.60;;;;;;4898620;29;20226;-70
2022/07/04 17:16:22;;;;;;;1.05;0.50;;;24.90;92.40;;;;;;4898892;29;20218;-69
2022/07/04 17:18:49;;;;;;;1.33;0.70;;;25.00;92.60;;;;;;4899544;29;20214;-69
2022/07/04 17:21:17;;;;;;;1.58;0.70;;;25.00;92.40;;;;;;4917868;29;20300;-70
2022/07/04 17:23:44;;;;;;;0.60;0.50;;;24.90;92.70;;;;;;4916791;29;20237;-69
2022/07/04 17:26:11;;;;;;;1.52;0.60;;;24.70;92.50;;;;;;4925213;29;20209;-69
2022/07/04 17:28:37;;;;;;;1.38;0.50;;;24.60;92.70;;;;;;4936222;29;20235;-68
2022/07/04 17:31:04;;;;;;;2.30;0.80;;;24.60;92.90;;;;;;4936154;29;20291;-69
2022/07/04 17:33:31;;;;;;;1.15;0.55;;;24.40;93.20;;;;;;4936390;29;20235;-69
2022/07/04 17:35:58;;;;;;;2.15;0.50;;;24.30;93.00;;;;;;4936122;29;20672;-68
2022/07/04 17:38:26;;;;;;;4.20;0.80;;;24.30;93.90;;;;;;4936428;29;20204;-69
2022/07/04 17:43:37;;;;;;;1.77;0.70;;;24.30;95.70;;;;;;4936093;29;20224;-69
2022/07/04 17:46:04;;;;;;;0.98;0.85;;;24.10;96.20;;;;;;4936663;29;20209;-69
2022/07/04 17:48:31;;;;;;;1.30;0.80;;;24.00;96.70;;;;;;4935901;29;20219;-67
2022/07/04 17:50:58;;;;;;;1.25;1.10;;;23.80;97.00;;;;;;4936046;29;20236;-68
2022/07/04 17:53:26;;;;;;;1.38;0.88;;;23.60;97.00;;;;;;4936137;29;20229;-68
2022/07/04 17:55:53;;;;;;;2.05;1.00;;;23.60;97.50;;;;;;4936087;29;20220;-69
2022/07/04 17:58:20;;;;;;;3.15;0.88;;;23.50;97.90;;;;;;4935923;29;20640;-68
2022/07/04 18:00:47;;;;;;;2.28;0.90;;;23.50;98.30;;;;;;4936011;29;20637;-67
2022/07/04 18:03:13;;;;;;;0.85;0.70;;;23.40;97.80;;;;;;4935879;29;20312;-67
2022/07/04 18:05:40;;;;;;;2.25;0.85;;;23.30;98.10;;;;;;4935855;29;20209;-68
2022/07/04 18:08:07;;;;;;;2.40;0.93;;;23.20;98.60;;;;;;4935273;29;20204;-69
2022/07/04 18:10:35;;;;;;;2.55;0.93;;;23.10;98.60;;;;;;4935119;29;20325;-69
2022/07/04 18:13:02;;;;;;;1.20;0.90;;;23.10;98.80;;;;;;4935530;29;20315;-69
2022/07/04 18:15:29;;;;;;;2.20;0.90;;;23.00;99.20;;;;;;4935759;29;20209;-69
2022/07/04 18:17:56;;;;;;;1.15;0.70;;;23.10;99.00;;;;;;4935544;29;20208;-69
2022/07/04 18:20:23;;;;;;;0.88;0.82;;;23.20;98.90;;;;;;4935606;29;20568;-69
2022/07/04 18:22:51;;;;;;;3.55;0.90;;;23.20;98.50;;;;;;4935443;29;20224;-68
2022/07/04 18:25:18;;;;;;;1.13;0.90;;;23.00;98.60;;;;;;4935250;29;20687;-69
2022/07/04 18:27:47;;;;;;;1.48;0.73;;;22.90;99.00;;;;;;4935134;29;20212;-69
2022/07/04 18:30:14;;;;;;;2.42;1.15;;;22.60;99.40;;;;;;4934990;29;20246;-69
2022/07/04 18:32:41;;;;;;;1.05;0.90;;;22.60;99.40;;;;;;4935225;29;20213;-68
2022/07/04 18:35:09;;;;;;;1.40;1.00;;;22.50;99.50;;;;;;4937058;29;20303;-69
2022/07/04 18:37:36;;;;;;;1.45;0.82;;;22.50;99.90;;;;;;4939099;29;20208;-69
2022/07/04 18:43:23;;;;;;;1.27;0.80;;;22.50;99.90;;;;;;4939209;29;20440;-69
2022/07/04 18:45:36;;;;;;;1.13;0.95;;;22.30;99.90;;;;;;4939423;29;20327;-69
2022/07/04 18:48:03;;;;;;;0.93;0.77;;;22.20;99.90;;;;;;4938878;29;20582;-69
2022/07/04 18:50:29;;;;;;;0.70;0.70;;;22.20;99.90;;;;;;4938927;29;20240;-69
2022/07/04 18:52:56;;;;;;;1.40;0.80;;;22.00;99.90;;;;;;4939124;29;20327;-67
2022/07/04 18:55:24;;;;;;;2.58;0.90;;;22.00;99.90;;;;;;4939088;29;20299;-68
2022/07/04 18:57:52;;;;;;;2.38;0.70;;;21.90;99.90;;;;;;4938628;29;20223;-69
2022/07/04 19:00:19;;;;;;;0.90;0.80;;;21.80;99.90;;;;;;4938899;29;20209;-68
2022/07/04 19:02:46;;;;;;;2.22;1.35;;;21.80;99.90;;;;;;4938664;29;20312;-66
2022/07/04 19:05:13;;;;;;;1.83;1.00;;;21.80;99.90;;;;;;4938360;29;20217;-69
2022/07/04 19:07:40;;;;;;;2.60;1.00;;;21.70;99.90;;;;;;4938439;29;20231;-69
2022/07/04 19:10:08;;;;;;;1.60;0.95;;;21.70;99.90;;;;;;4938175;29;20240;-69
2022/07/04 19:12:36;;;;;;;1.65;1.20;;;21.70;99.90;;;;;;4938281;29;20247;-69
2022/07/04 19:15:07;;;;;;;1.42;1.00;;;21.60;99.90;;;;;;4938479;29;20217;-69
2022/07/04 19:17:34;;;;;;;1.58;0.93;;;21.60;99.90;;;;;;4938412;29;20212;-68
2022/07/04 19:20:01;;;;;;;2.80;1.02;;;21.60;99.90;;;;;;4938940;29;20213;-68
2022/07/04 19:22:29;;;;;;;1.38;0.90;;;21.50;99.90;;;;;;4938490;29;20217;-69
2022/07/04 19:24:56;;;;;;;1.45;1.02;;;21.60;99.90;;;;;;4938510;29;20660;-69
2022/07/04 19:27:23;;;;;;;2.33;1.00;;;21.50;99.90;;;;;;4938345;29;20208;-68
2022/07/04 19:29:51;;;;;;;5.50;1.08;;;21.50;99.90;;;;;;4938306;29;20328;-68
2022/07/04 19:32:20;;;;;;;1.60;0.90;;;21.50;99.90;;;;;;4938398;29;20560;-68
2022/07/04 19:34:47;;;;;;;1.30;1.00;;;21.30;99.90;;;;;;4938474;29;20225;-69
2022/07/04 19:37:14;;;;;;;1.50;1.10;;;21.20;99.90;;;;;;4938409;29;20211;-69
2022/07/04 19:39:41;;;;;;;2.20;1.10;;;21.10;99.90;;;;;;4938371;29;20698;-69
2022/07/04 19:42:08;;;;;;;1.60;1.00;;;21.10;99.90;;;;;;4938567;29;20303;-69
2022/07/04 19:44:35;;;;;;;3.15;1.00;;;21.00;99.90;;;;;;4938080;29;20895;-68
2022/07/04 19:47:02;;;;;;;2.17;1.20;;;20.90;99.90;;;;;;4936901;29;20620;-69
2022/07/04 19:49:30;;;;;;;1.60;1.00;;;20.80;99.90;;;;;;4937855;29;20236;-69
2022/07/04 19:54:41;;;;;;;1.23;0.93;;;20.80;99.90;;;;;;4938451;29;20271;-68
2022/07/04 19:57:08;;;;;;;4.80;1.07;;;20.70;99.90;;;;;;4937535;29;20223;-68
2022/07/04 19:59:35;;;;;;;1.20;0.77;;;20.60;99.90;;;;;;4937773;29;20211;-68
2022/07/04 20:02:02;;;;;;;0.97;0.60;;;20.60;99.90;;;;;;4937786;29;20560;-69
2022/07/04 20:04:30;;;;;;;1.13;0.70;;;20.60;99.90;;;;;;4937811;29;20584;-69
2022/07/04 20:06:57;;;;;;;0.87;0.60;;;20.50;99.90;;;;;;4937585;29;20205;-68
2022/07/04 20:09:24;;;;;;;1.50;0.80;;;20.30;99.90;;;;;;4937271;29;20243;-69
2022/07/04 20:11:51;;;;;;;1.33;0.60;;;20.40;99.90;;;;;;4937831;29;20209;-67
2022/07/04 20:14:17;;;;;;;2.33;0.60;;;20.40;99.90;;;;;;4937233;29;20231;-68
2022/07/04 20:16:45;;;;;;;1.17;0.50;;;20.20;99.90;;;;;;4937578;29;20212;-68
2022/07/04 20:19:12;;;;;;;1.50;0.70;;;20.10;99.90;;;;;;4938194;29;20209;-69
2022/07/04 20:21:41;;;;;;;1.90;0.90;;;20.10;99.90;;;;;;4937639;29;20216;-68
2022/07/04 20:24:08;;;;;;;0.70;0.60;;;20.00;99.90;;;;;;4937249;29;20228;-69
2022/07/04 20:26:36;;;;;;;0.80;0.60;;;20.00;99.90;;;;;;4937596;29;20205;-69
2022/07/04 20:29:03;;;;;;;1.48;0.57;;;19.90;99.90;;;;;;4937423;29;20312;-68
2022/07/04 20:31:30;;;;;;;4.30;0.97;;;19.80;99.90;;;;;;4937470;29;20217;-69
2022/07/04 20:33:58;;;;;;;1.77;0.60;;;19.80;99.90;;;;;;4936841;29;20244;-69
2022/07/04 20:36:25;;;;;;;1.37;0.60;;;19.80;99.90;;;;;;4937118;29;20718;-69
2022/07/04 20:38:54;;;;;;;0.83;0.67;;;19.70;99.90;;;;;;4937411;29;20213;-69
2022/07/04 20:41:21;;;;;;;0.80;0.70;;;19.70;99.90;;;;;;4937319;29;20212;-69
2022/07/04 20:43:48;;;;;;;1.98;0.68;;;19.60;99.90;;;;;;4936943;29;20239;-69
2022/07/04 20:46:15;;;;;;;0.97;0.50;;;19.50;99.90;;;;;;4937112;29;20209;-69
2022/07/04 20:48:44;;;;;;;1.33;0.50;;;19.50;99.90;;;;;;4936988;29;20300;-69
2022/07/04 20:51:11;;;;;;;1.10;0.70;;;19.40;99.90;;;;;;4936769;29;20236;-68
2022/07/04 20:53:38;;;;;;;2.00;0.80;;;19.30;99.90;;;;;;4937049;29;20233;-69
2022/07/04 20:56:06;;;;;;;2.03;0.70;;;19.30;99.90;;;;;;4936701;29;20218;-69
2022/07/04 20:58:33;;;;;;;1.50;0.70;;;19.20;99.90;;;;;;4936482;29;20772;-69
2022/07/04 21:01:00;;;;;;;0.57;0.57;;;19.20;99.90;;;;;;4936984;29;20212;-69
2022/07/04 21:03:27;;;;;;;1.50;0.60;;;19.10;99.90;;;;;;4936583;29;20228;-68
2022/07/04 21:05:53;;;;;;;2.90;0.60;;;19.00;99.90;;;;;;4936443;29;20291;-68
2022/07/04 21:08:20;;;;;;;0.60;0.50;;;18.90;99.90;;;;;;4936983;29;20213;-69
2022/07/04 21:10:47;;;;;;;2.07;0.97;;;18.90;99.90;;;;;;4936754;29;20240;-69
2022/07/04 21:13:15;;;;;;;0.90;0.70;;;18.80;99.90;;;;;;4936325;29;20233;-69